createdAt,value
2022-10-01T00:01:11.320Z,2.47
2022-10-01T00:03:39.034Z,2.30
2022-10-01T00:06:09.453Z,2.73
2022-10-01T00:08:38.230Z,2.60
2022-10-01T00:11:10.089Z,2.60
2022-10-01T00:13:38.169Z,2.60
2022-10-01T00:16:09.340Z,2.80
2022-10-01T00:18:38.182Z,2.80
2022-10-01T00:21:09.669Z,2.30
2022-10-01T00:23:37.279Z,2.87
2022-10-01T00:26:12.648Z,2.60
2022-10-01T00:28:40.320Z,2.53
2022-10-01T00:31:10.390Z,3.07
2022-10-01T00:33:38.669Z,2.93
2022-10-01T00:36:06.855Z,2.63
2022-10-01T00:38:35.184Z,2.70
2022-10-01T00:41:03.520Z,2.50
2022-10-01T00:43:32.660Z,2.90
2022-10-01T00:46:03.300Z,2.40
2022-10-01T00:48:36.906Z,2.60
2022-10-01T00:51:06.497Z,2.83
2022-10-01T00:53:34.395Z,2.47
2022-10-01T00:56:02.322Z,2.60
2022-10-01T00:58:29.896Z,2.63
2022-10-01T01:00:58.148Z,2.40
2022-10-01T01:03:25.841Z,2.60
2022-10-01T01:05:54.706Z,2.70
2022-10-01T01:08:22.320Z,2.63
2022-10-01T01:10:55.712Z,2.70
2022-10-01T01:13:27.040Z,2.77
2022-10-01T01:15:57.479Z,2.73
2022-10-01T01:18:30.084Z,2.97
2022-10-01T01:21:13.845Z,2.60
2022-10-01T01:24:32.289Z,2.50
2022-10-01T01:27:08.935Z,2.67
2022-10-01T01:29:41.456Z,2.80
2022-10-01T01:32:14.775Z,2.60
2022-10-01T01:34:45.115Z,2.80
2022-10-01T01:37:15.166Z,2.40
2022-10-01T01:39:46.131Z,2.57
2022-10-01T01:42:20.077Z,2.23
2022-10-01T01:44:50.998Z,2.33
2022-10-01T01:47:20.194Z,2.20
2022-10-01T01:49:50.143Z,2.50
2022-10-01T01:52:18.380Z,2.20
2022-10-01T01:54:47.804Z,2.40
2022-10-01T01:57:17.477Z,2.20
2022-10-01T01:59:45.361Z,2.20
2022-10-01T02:02:16.806Z,2.40
2022-10-01T02:04:47.290Z,2.33
2022-10-01T02:07:43.235Z,2.10
2022-10-01T02:10:18.411Z,2.20
2022-10-01T02:12:56.926Z,2.50
2022-10-01T02:15:28.719Z,2.17
2022-10-01T02:18:03.323Z,2.20
2022-10-01T02:20:33.817Z,1.90
2022-10-01T02:23:04.701Z,1.87
2022-10-01T02:25:35.564Z,1.90
2022-10-01T02:28:06.896Z,1.77
2022-10-01T02:30:36.445Z,1.80
2022-10-01T02:33:06.905Z,1.60
2022-10-01T02:35:36.116Z,1.80
2022-10-01T02:38:05.790Z,2.00
2022-10-01T02:40:36.385Z,1.90
2022-10-01T02:43:08.182Z,2.00
2022-10-01T02:45:38.163Z,1.80
2022-10-01T02:48:08.759Z,2.00
2022-10-01T02:50:43.325Z,1.80
2022-10-01T02:53:14.127Z,1.90
2022-10-01T02:55:42.720Z,1.87
2022-10-01T02:58:09.414Z,2.10
2022-10-01T03:00:36.944Z,1.87
2022-10-01T03:03:04.607Z,2.00
2022-10-01T03:05:33.508Z,1.57
2022-10-01T03:08:01.389Z,1.53
2022-10-01T03:10:29.298Z,2.00
2022-10-01T03:12:56.823Z,2.37
2022-10-01T03:15:24.485Z,1.90
2022-10-01T03:17:52.514Z,2.00
2022-10-01T03:20:20.286Z,2.07
2022-10-01T03:22:49.323Z,1.90
2022-10-01T03:25:17.441Z,2.20
2022-10-01T03:27:46.385Z,2.27
2022-10-01T03:30:14.828Z,1.90
2022-10-01T03:32:42.362Z,2.20
2022-10-01T03:35:10.533Z,1.80
2022-10-01T03:37:38.091Z,2.20
2022-10-01T03:40:08.273Z,2.03
2022-10-01T03:42:35.950Z,2.50
2022-10-01T03:45:03.564Z,2.10
2022-10-01T03:47:31.081Z,1.70
2022-10-01T03:49:58.612Z,2.00
2022-10-01T03:52:26.348Z,2.30
2022-10-01T03:54:53.872Z,2.30
2022-10-01T03:57:22.773Z,2.30
2022-10-01T03:59:50.365Z,2.10
2022-10-01T04:02:17.993Z,2.30
2022-10-01T04:04:45.613Z,2.47
2022-10-01T04:07:13.135Z,2.20
2022-10-01T04:09:40.643Z,2.50
2022-10-01T04:12:08.292Z,2.40
2022-10-01T04:14:37.207Z,2.40
2022-10-01T04:17:04.771Z,2.20
2022-10-01T04:19:32.599Z,2.17
2022-10-01T04:22:00.399Z,2.50
2022-10-01T04:24:27.926Z,2.30
2022-10-01T04:26:55.568Z,2.40
2022-10-01T04:29:23.151Z,2.17
2022-10-01T04:31:53.694Z,2.63
2022-10-01T04:34:41.345Z,2.47
2022-10-01T04:37:08.829Z,2.80
2022-10-01T04:39:36.440Z,2.60
2022-10-01T04:42:04.047Z,2.97
2022-10-01T04:44:31.573Z,2.97
2022-10-01T04:47:00.574Z,2.30
2022-10-01T04:49:28.213Z,2.57
2022-10-01T04:51:55.849Z,2.60
2022-10-01T04:54:23.377Z,2.67
2022-10-01T04:56:51.009Z,2.50
2022-10-01T04:59:18.785Z,2.97
2022-10-01T05:01:46.347Z,2.60
2022-10-01T05:04:15.268Z,2.73
2022-10-01T05:06:42.779Z,2.50
2022-10-01T05:09:10.319Z,2.37
2022-10-01T05:11:39.073Z,2.90
2022-10-01T05:14:06.602Z,2.50
2022-10-01T05:16:34.206Z,2.33
2022-10-01T05:19:01.735Z,2.33
2022-10-01T05:21:31.124Z,2.80
2022-10-01T05:23:58.786Z,2.57
2022-10-01T05:26:26.473Z,2.37
2022-10-01T05:28:54.017Z,2.37
2022-10-01T05:31:21.535Z,2.53
2022-10-01T05:33:49.090Z,2.90
2022-10-01T05:36:16.637Z,2.43
2022-10-01T05:38:46.034Z,2.67
2022-10-01T05:41:13.554Z,2.27
2022-10-01T05:43:41.111Z,2.73
2022-10-01T05:46:10.254Z,2.77
2022-10-01T05:48:38.494Z,2.70
2022-10-01T05:51:08.057Z,2.80
2022-10-01T05:53:37.292Z,2.80
2022-10-01T05:56:06.694Z,3.13
2022-10-01T05:58:34.359Z,2.70
2022-10-01T06:01:02.786Z,2.53
2022-10-01T06:03:30.320Z,2.77
2022-10-01T06:05:57.928Z,2.60
2022-10-01T06:08:28.308Z,2.40
2022-10-01T06:11:00.286Z,2.90
2022-10-01T06:13:29.380Z,2.43
2022-10-01T06:15:57.258Z,2.67
2022-10-01T06:18:24.870Z,2.40
2022-10-01T06:20:52.434Z,2.50
2022-10-01T06:23:19.983Z,2.33
2022-10-01T06:25:47.518Z,2.27
2022-10-01T06:28:15.560Z,2.20
2022-10-01T06:30:44.912Z,2.37
2022-10-01T06:33:14.358Z,1.93
2022-10-01T06:35:43.706Z,1.77
2022-10-01T06:38:11.834Z,1.90
2022-10-01T06:40:39.604Z,1.83
2022-10-01T06:43:08.064Z,1.90
2022-10-01T06:45:38.215Z,1.70
2022-10-01T06:48:07.704Z,1.73
2022-10-01T06:50:35.874Z,1.67
2022-10-01T06:53:02.692Z,1.40
2022-10-01T06:55:31.619Z,1.50
2022-10-01T06:58:00.401Z,1.57
2022-10-01T07:00:29.225Z,2.50
2022-10-01T07:02:56.862Z,2.70
2022-10-01T07:05:26.456Z,2.47
2022-10-01T07:07:54.413Z,2.13
2022-10-01T07:10:23.240Z,2.00
2022-10-01T07:12:51.270Z,1.40
2022-10-01T07:15:20.461Z,1.40
2022-10-01T07:17:49.795Z,1.50
2022-10-01T07:20:18.573Z,1.37
2022-10-01T07:22:48.369Z,1.37
2022-10-01T07:25:16.288Z,1.50
2022-10-01T07:27:43.891Z,0.80
2022-10-01T07:30:12.270Z,1.10
2022-10-01T07:32:39.837Z,1.23
2022-10-01T07:35:08.976Z,1.37
2022-10-01T07:37:36.483Z,1.40
2022-10-01T07:40:07.638Z,0.90
2022-10-01T07:42:35.440Z,1.90
2022-10-01T07:45:04.247Z,1.80
2022-10-01T07:47:32.048Z,1.80
2022-10-01T07:49:59.582Z,1.83
2022-10-01T07:52:27.073Z,2.87
2022-10-01T07:54:54.618Z,1.40
2022-10-01T07:57:23.549Z,0.90
2022-10-01T07:59:55.566Z,1.10
2022-10-01T08:02:23.657Z,1.00
2022-10-01T08:05:08.992Z,1.10
2022-10-01T08:07:36.778Z,0.83
2022-10-01T08:10:05.479Z,0.93
2022-10-01T08:12:34.411Z,1.20
2022-10-01T08:15:03.071Z,0.73
2022-10-01T08:17:30.680Z,1.00
2022-10-01T08:19:58.198Z,0.90
2022-10-01T08:22:25.712Z,0.90
2022-10-01T08:24:53.231Z,1.00
2022-10-01T08:27:20.784Z,1.00
2022-10-01T08:29:49.673Z,0.80
2022-10-01T08:32:17.355Z,0.60
2022-10-01T08:34:44.925Z,0.70
2022-10-01T08:37:12.864Z,0.67
2022-10-01T08:39:40.581Z,0.97
2022-10-01T08:42:15.311Z,0.90
2022-10-01T08:44:45.382Z,0.77
2022-10-01T08:47:18.208Z,0.80
2022-10-01T08:49:48.256Z,14.27
2022-10-01T08:52:21.233Z,3.17
2022-10-01T08:54:51.756Z,1.47
2022-10-01T08:57:22.224Z,1.63
2022-10-01T08:59:52.288Z,1.60
2022-10-01T09:02:23.376Z,1.00
2022-10-01T09:04:55.887Z,0.83
2022-10-01T09:07:42.895Z,1.00
2022-10-01T09:10:25.497Z,1.03
2022-10-01T09:13:07.966Z,1.77
2022-10-01T09:15:39.586Z,1.30
2022-10-01T09:18:16.748Z,2.40
2022-10-01T09:20:47.367Z,2.33
2022-10-01T09:23:20.986Z,1.30
2022-10-01T09:25:51.202Z,1.20
2022-10-01T09:28:21.677Z,1.57
2022-10-01T09:30:54.854Z,1.10
2022-10-01T09:33:27.735Z,1.20
2022-10-01T09:36:01.374Z,1.20
2022-10-01T09:38:34.275Z,1.20
2022-10-01T09:41:01.836Z,1.10
2022-10-01T09:43:30.467Z,0.67
2022-10-01T09:45:58.380Z,0.93
2022-10-01T09:48:34.118Z,1.07
2022-10-01T09:51:07.652Z,0.80
2022-10-01T09:53:38.339Z,0.80
2022-10-01T09:56:14.946Z,0.80
2022-10-01T09:58:48.011Z,0.90
2022-10-01T10:01:22.256Z,0.83
2022-10-01T10:03:58.971Z,0.83
2022-10-01T10:06:28.802Z,0.77
2022-10-01T10:08:58.189Z,0.90
2022-10-01T10:11:28.050Z,0.60
2022-10-01T10:13:57.282Z,0.50
2022-10-01T10:16:27.683Z,0.50
2022-10-01T10:18:58.641Z,0.70
2022-10-01T10:21:28.587Z,0.60
2022-10-01T10:23:57.683Z,0.40
2022-10-01T10:26:31.867Z,0.77
2022-10-01T10:29:00.642Z,0.80
2022-10-01T10:31:29.838Z,2.40
2022-10-01T10:34:02.465Z,1.30
2022-10-01T10:36:31.143Z,0.90
2022-10-01T10:38:59.147Z,0.60
2022-10-01T10:41:27.207Z,1.30
2022-10-01T10:43:57.638Z,0.70
2022-10-01T10:46:31.319Z,0.67
2022-10-01T10:49:08.635Z,0.50
2022-10-01T10:51:49.227Z,0.80
2022-10-01T10:54:22.943Z,0.70
2022-10-01T10:57:02.514Z,0.50
2022-10-01T10:59:32.656Z,0.50
2022-10-01T11:02:01.829Z,0.60
2022-10-01T11:04:39.109Z,0.47
2022-10-01T11:07:07.052Z,0.70
2022-10-01T11:09:45.503Z,0.60
2022-10-01T11:12:21.086Z,0.60
2022-10-01T11:15:01.381Z,0.67
2022-10-01T11:17:40.581Z,0.80
2022-10-01T11:20:26.054Z,0.60
2022-10-01T11:23:01.801Z,0.80
2022-10-01T11:25:43.774Z,0.50
2022-10-01T11:28:22.588Z,0.87
2022-10-01T11:30:58.869Z,0.60
2022-10-01T11:33:34.544Z,0.80
2022-10-01T11:36:06.742Z,1.10
2022-10-01T11:38:53.515Z,1.00
2022-10-01T11:41:28.614Z,1.13
2022-10-01T11:43:58.651Z,0.93
2022-10-01T11:46:33.933Z,0.97
2022-10-01T11:49:05.255Z,1.20
2022-10-01T11:51:39.602Z,1.10
2022-10-01T11:54:10.704Z,1.20
2022-10-01T11:56:59.268Z,1.40
2022-10-01T11:59:31.141Z,1.50
2022-10-01T12:02:08.105Z,1.50
2022-10-01T12:04:38.551Z,1.40
2022-10-01T12:07:14.830Z,1.30
2022-10-01T12:09:54.175Z,1.93
2022-10-01T12:12:24.258Z,1.40
2022-10-01T12:14:55.321Z,1.40
2022-10-01T12:17:27.602Z,1.90
2022-10-01T12:19:56.457Z,1.63
2022-10-01T12:22:28.350Z,1.50
2022-10-01T12:24:55.967Z,1.30
2022-10-01T12:27:39.819Z,1.40
2022-10-01T12:30:09.936Z,1.30
2022-10-01T12:32:51.119Z,1.43
2022-10-01T12:35:35.641Z,1.20
2022-10-01T12:38:13.956Z,1.00
2022-10-01T12:40:46.591Z,1.00
2022-10-01T12:43:29.159Z,1.20
2022-10-01T12:46:02.451Z,1.50
2022-10-01T12:48:36.099Z,1.40
2022-10-01T12:51:17.240Z,1.07
2022-10-01T12:53:47.659Z,1.10
2022-10-01T12:56:18.014Z,0.90
2022-10-01T12:58:53.735Z,1.17
2022-10-01T13:01:31.602Z,0.80
2022-10-01T13:04:08.788Z,0.70
2022-10-01T13:06:43.661Z,0.73
2022-10-01T13:09:17.527Z,0.70
2022-10-01T13:11:54.034Z,0.60
2022-10-01T13:14:22.466Z,0.60
2022-10-01T13:16:58.156Z,0.50
2022-10-01T13:19:29.195Z,0.23
2022-10-01T13:22:07.555Z,0.30
2022-10-01T13:24:39.638Z,0.40
2022-10-01T13:27:11.364Z,0.60
2022-10-01T13:29:48.115Z,0.60
2022-10-01T13:32:35.754Z,0.53
2022-10-01T13:35:24.085Z,0.60
2022-10-01T13:37:51.820Z,0.40
2022-10-01T13:40:26.731Z,0.40
2022-10-01T13:42:55.780Z,0.40
2022-10-01T13:45:31.834Z,0.50
2022-10-01T13:48:15.735Z,0.40
2022-10-01T13:50:55.586Z,0.70
2022-10-01T13:53:25.240Z,0.80
2022-10-01T13:55:54.714Z,1.00
2022-10-01T13:58:25.506Z,0.70
2022-10-01T14:00:55.343Z,0.57
2022-10-01T14:03:42.679Z,0.30
2022-10-01T14:06:18.408Z,0.43
2022-10-01T14:08:50.249Z,0.70
2022-10-01T14:11:41.460Z,0.67
2022-10-01T14:14:31.780Z,0.63
2022-10-01T14:16:59.899Z,0.70
2022-10-01T14:19:28.512Z,0.57
2022-10-01T14:22:07.212Z,0.77
2022-10-01T14:24:44.437Z,0.57
2022-10-01T14:27:18.334Z,0.70
2022-10-01T14:29:58.202Z,0.60
2022-10-01T14:32:34.732Z,0.67
2022-10-01T14:35:19.206Z,1.00
2022-10-01T14:37:46.879Z,1.00
2022-10-01T14:40:18.604Z,0.93
2022-10-01T14:42:57.769Z,1.00
2022-10-01T14:45:25.567Z,1.33
2022-10-01T14:48:01.314Z,1.20
2022-10-01T14:50:29.559Z,1.30
2022-10-01T14:52:58.402Z,1.40
2022-10-01T14:55:26.653Z,1.47
2022-10-01T14:57:56.675Z,1.20
2022-10-01T15:00:25.813Z,1.40
2022-10-01T15:02:55.067Z,1.33
2022-10-01T15:05:24.988Z,1.93
2022-10-01T15:07:53.036Z,2.00
2022-10-01T15:10:23.910Z,1.67
2022-10-01T15:12:52.760Z,1.70
2022-10-01T15:15:25.016Z,1.80
2022-10-01T15:17:53.034Z,2.23
2022-10-01T15:20:20.769Z,3.03
2022-10-01T15:22:49.925Z,2.37
2022-10-01T15:25:22.138Z,3.23
2022-10-01T15:27:50.030Z,4.87
2022-10-01T15:30:19.143Z,2.60
2022-10-01T15:32:49.371Z,2.13
2022-10-01T15:35:20.201Z,1.80
2022-10-01T15:37:50.394Z,2.23
2022-10-01T15:40:28.255Z,2.53
2022-10-01T15:43:26.535Z,2.90
2022-10-01T15:46:18.175Z,2.37
2022-10-01T15:48:47.747Z,2.13
2022-10-01T15:51:19.463Z,1.80
2022-10-01T15:53:47.291Z,2.03
2022-10-01T15:56:16.515Z,2.23
2022-10-01T15:58:48.491Z,2.37
2022-10-01T16:01:22.195Z,2.30
2022-10-01T16:03:54.731Z,2.00
2022-10-01T16:06:25.111Z,1.70
2022-10-01T16:09:05.040Z,1.90
2022-10-01T16:11:33.263Z,2.20
2022-10-01T16:14:31.413Z,2.90
2022-10-01T16:17:38.361Z,2.70
2022-10-01T16:20:39.281Z,2.40
2022-10-01T16:23:43.225Z,2.37
2022-10-01T16:26:36.032Z,1.90
2022-10-01T16:29:07.253Z,1.67
2022-10-01T16:31:36.141Z,2.23
2022-10-01T16:34:03.795Z,2.60
2022-10-01T16:36:34.189Z,2.60
2022-10-01T16:39:03.404Z,2.83
2022-10-01T16:41:31.543Z,3.03
2022-10-01T16:43:59.120Z,2.27
2022-10-01T16:46:26.845Z,2.20
2022-10-01T16:48:54.424Z,3.00
2022-10-01T16:51:22.584Z,2.63
2022-10-01T16:53:50.247Z,2.17
2022-10-01T16:56:21.457Z,2.30
2022-10-01T16:58:52.783Z,3.30
2022-10-01T17:01:20.388Z,2.90
2022-10-01T17:03:48.005Z,1.97
2022-10-01T17:06:15.597Z,2.43
2022-10-01T17:08:43.405Z,2.00
2022-10-01T17:11:12.903Z,2.50
2022-10-01T17:13:42.213Z,3.73
2022-10-01T17:16:09.843Z,2.80
2022-10-01T17:18:37.463Z,2.27
2022-10-01T17:21:05.659Z,2.27
2022-10-01T17:23:34.847Z,2.30
2022-10-01T17:26:02.945Z,2.50
2022-10-01T17:28:31.227Z,1.73
2022-10-01T17:31:00.141Z,1.93
2022-10-01T17:33:28.255Z,2.27
2022-10-01T17:35:55.811Z,1.77
2022-10-01T17:38:23.905Z,1.80
2022-10-01T17:40:56.361Z,2.17
2022-10-01T17:43:24.322Z,1.80
2022-10-01T17:45:56.606Z,2.13
2022-10-01T17:48:26.037Z,2.33
2022-10-01T17:51:01.450Z,2.07
2022-10-01T17:53:34.952Z,2.10
2022-10-01T17:56:07.027Z,1.80
2022-10-01T17:58:34.606Z,2.60
2022-10-01T18:01:02.258Z,2.60
2022-10-01T18:03:31.602Z,2.20
2022-10-01T18:06:03.401Z,2.07
2022-10-01T18:08:51.150Z,1.77
2022-10-01T18:11:19.612Z,1.63
2022-10-01T18:13:47.164Z,1.77
2022-10-01T18:16:18.998Z,1.63
2022-10-01T18:21:36.402Z,1.77
2022-10-01T18:24:05.116Z,1.67
2022-10-01T18:26:33.213Z,1.50
2022-10-01T18:29:01.425Z,1.87
2022-10-01T18:31:34.274Z,1.77
2022-10-01T18:34:04.904Z,1.97
2022-10-01T18:36:42.984Z,1.70
2022-10-01T18:39:16.845Z,1.40
2022-10-01T18:41:44.528Z,1.67
2022-10-01T18:44:17.989Z,1.40
2022-10-01T18:46:58.623Z,1.50
2022-10-01T18:49:45.806Z,1.30
2022-10-01T18:52:20.574Z,1.70
2022-10-01T18:55:09.977Z,1.17
2022-10-01T18:57:48.090Z,1.30
2022-10-01T19:00:18.125Z,1.47
2022-10-01T19:02:55.161Z,1.30
2022-10-01T19:05:54.960Z,1.30
2022-10-01T19:08:32.417Z,1.50
2022-10-01T19:11:04.363Z,1.40
2022-10-01T19:13:39.587Z,1.30
2022-10-01T19:16:15.383Z,1.47
2022-10-01T19:18:55.052Z,1.60
2022-10-01T19:21:30.101Z,2.03
2022-10-01T19:24:10.848Z,2.17
2022-10-01T19:26:43.629Z,1.50
2022-10-01T19:29:23.512Z,1.63
2022-10-01T19:31:54.507Z,1.70
2022-10-01T19:34:26.676Z,2.37
2022-10-01T19:37:00.839Z,2.23
2022-10-01T19:39:31.385Z,2.33
2022-10-01T19:42:01.862Z,1.90
2022-10-01T19:44:33.693Z,1.90
2022-10-01T19:47:12.114Z,1.80
2022-10-01T19:49:40.270Z,2.83
2022-10-01T19:52:13.247Z,1.87
2022-10-01T19:54:44.418Z,2.33
2022-10-01T19:57:19.745Z,2.07
2022-10-01T19:59:47.829Z,2.40
2022-10-01T20:02:17.248Z,2.40
2022-10-01T20:04:51.628Z,3.43
2022-10-01T20:07:24.025Z,3.50
2022-10-01T20:09:56.009Z,4.03
2022-10-01T20:12:30.872Z,4.23
2022-10-01T20:15:11.260Z,3.37
2022-10-01T20:17:47.764Z,3.17
2022-10-01T20:20:18.548Z,3.13
2022-10-01T20:23:02.334Z,5.60
2022-10-01T20:25:35.156Z,6.80
2022-10-01T20:28:07.624Z,8.90
2022-10-01T20:30:44.774Z,5.33
2022-10-01T20:33:19.998Z,6.33
2022-10-01T20:35:56.065Z,5.40
2022-10-01T20:38:28.921Z,4.33
2022-10-01T20:40:58.506Z,3.70
2022-10-01T20:43:31.181Z,3.67
2022-10-01T20:45:59.922Z,3.57
2022-10-01T20:48:30.880Z,3.63
2022-10-01T20:51:02.651Z,5.73
2022-10-01T20:53:38.681Z,5.47
2022-10-01T20:56:12.176Z,3.00
2022-10-01T20:58:44.546Z,2.13
2022-10-01T21:01:17.082Z,1.97
2022-10-01T21:03:47.696Z,2.37
2022-10-01T21:06:18.343Z,2.37
2022-10-01T21:08:52.628Z,2.50
2022-10-01T21:11:27.513Z,2.43
2022-10-01T21:14:06.090Z,2.33
2022-10-01T21:16:51.747Z,2.30
2022-10-01T21:19:36.723Z,2.60
2022-10-01T21:22:15.813Z,2.93
2022-10-01T21:24:57.447Z,2.53
2022-10-01T21:27:38.151Z,2.50
2022-10-01T21:30:09.471Z,2.20
2022-10-01T21:32:51.803Z,2.80
2022-10-01T21:35:27.111Z,2.57
2022-10-01T21:38:00.877Z,2.90
2022-10-01T21:40:44.062Z,2.97
2022-10-01T21:43:16.455Z,3.00
2022-10-01T21:45:46.665Z,2.80
2022-10-01T21:48:28.302Z,2.57
2022-10-01T21:50:57.792Z,3.50
2022-10-01T21:53:56.150Z,2.50
2022-10-01T21:56:38.829Z,2.57
2022-10-01T21:59:11.119Z,2.90
2022-10-01T22:01:50.666Z,2.50
2022-10-01T22:04:20.855Z,2.97
2022-10-01T22:06:52.754Z,3.17
2022-10-01T22:09:24.061Z,2.93
2022-10-01T22:11:55.613Z,3.43
2022-10-01T22:14:25.326Z,3.17
2022-10-01T22:16:56.277Z,2.20
2022-10-01T22:19:29.096Z,2.40
2022-10-01T22:21:59.392Z,2.87
2022-10-01T22:24:30.967Z,3.03
2022-10-01T22:27:06.679Z,3.60
2022-10-01T22:29:37.658Z,3.03
2022-10-01T22:32:05.933Z,2.90
2022-10-01T22:34:35.572Z,2.97
2022-10-01T22:37:06.610Z,2.60
2022-10-01T22:39:38.147Z,2.60
2022-10-01T22:42:09.881Z,2.83
2022-10-01T22:44:37.752Z,3.03
2022-10-01T22:47:17.560Z,3.03
2022-10-01T22:49:55.757Z,2.97
2022-10-01T22:52:31.588Z,2.97
2022-10-01T22:55:08.932Z,3.00
2022-10-01T22:57:52.097Z,3.20
2022-10-01T23:00:21.225Z,2.97
2022-10-01T23:02:57.387Z,3.17
2022-10-01T23:05:36.355Z,3.03
2022-10-01T23:08:07.872Z,3.47
2022-10-01T23:10:41.012Z,2.77
2022-10-01T23:13:19.363Z,3.00
2022-10-01T23:15:51.941Z,3.37
2022-10-01T23:18:28.463Z,3.27
2022-10-01T23:21:05.583Z,3.23
2022-10-01T23:23:34.185Z,2.50
2022-10-01T23:26:30.847Z,2.87
2022-10-01T23:29:09.975Z,3.00
2022-10-01T23:31:41.735Z,2.67
2022-10-01T23:34:22.743Z,2.90
2022-10-01T23:36:54.684Z,2.90
2022-10-01T23:39:45.729Z,2.73
2022-10-01T23:42:21.153Z,2.70
2022-10-01T23:44:55.904Z,2.63
2022-10-01T23:47:28.344Z,2.80
2022-10-01T23:49:57.462Z,3.10
2022-10-01T23:52:30.663Z,2.80
2022-10-01T23:55:21.107Z,3.10
2022-10-01T23:57:48.561Z,3.20
